Western, Nebraska
Current Conditions -  °F | °C
As of 4:55 PM on Tuesday 27 Jan 2015 (Local Time) from KBIE Reporting Station
Clear Clear  
Wind Chill: 59°   Ceiling: Unl
Heat Index: 59°   Visibility: 10mi
Dew Point: 33°   Wind: 7mph
Humidity: 38%   Direction: 140°SE
Pressure: 30"   Gusts: NA
Location:  40.39°N, 97.2°W
Report Text: KBIE 272255Z AUTO 14006KT 10SM CLR 15/01 A3000 RMK AO2 T01480006
Loading
Personal Weather Stations






























Interactive Weather Map New forecast layout! Learn more

10-Day Weather Forecast

Advertisements
Track Severe Weather on mobile